YIB weather

Atikokan Municipal Airport
Atikokan, Ontario, Canada

Public forecast

Using degrees Celsius for public forecast. Weather courtesy of forecast.io.

METAR (pilot weather report)

Closest report is Ely Municipal Airport, 57.5 nm (106.5 km) S. Retrieved 2019/06/19 07:17 UTC (55 minutes ago):

KELO 190717Z AUTO 00000KT 10SM OVC110 10/10 A2993 RMK AO2

TAF (pilot weather forecast)

Closest forecast is Falls International Airport, 71.1 nm (131.6 km) W. Retrieved 2019/06/19 06:36 UTC (2 hours ago):

TAF KINL 190534Z 1906/2006 00000KT P6SM SCT060 FM190900 00000KT 4SM BR SCT060 TEMPO 1909/1912 1SM BR FM191300 04004KT P6SM SCT080